sensor_id;sensor_type;location;lat;lon;timestamp;pressure;altitude;pressure_sealevel;temperature;humidity
61472;BME280;47337;54.068;12.114;2022-08-01T00:00:29;100920.72;;;18.04;100.00
61472;BME280;47337;54.068;12.114;2022-08-01T00:02:54;100922.59;;;17.99;100.00
61472;BME280;47337;54.068;12.114;2022-08-01T00:05:19;100921.69;;;18.00;100.00
61472;BME280;47337;54.068;12.114;2022-08-01T00:07:45;100925.25;;;17.99;100.00
61472;BME280;47337;54.068;12.114;2022-08-01T00:10:14;100927.94;;;17.98;100.00
61472;BME280;47337;54.068;12.114;2022-08-01T00:12:41;100937.63;;;18.00;100.00
61472;BME280;47337;54.068;12.114;2022-08-01T00:15:08;100932.31;;;18.00;100.00
61472;BME280;47337;54.068;12.114;2022-08-01T00:17:34;100936.69;;;18.01;100.00
61472;BME280;47337;54.068;12.114;2022-08-01T00:19:59;100926.94;;;18.03;100.00
61472;BME280;47337;54.068;12.114;2022-08-01T00:22:25;100928.72;;;18.01;100.00
61472;BME280;47337;54.068;12.114;2022-08-01T00:24:50;100924.38;;;17.99;100.00
61472;BME280;47337;54.068;12.114;2022-08-01T00:27:16;100928.72;;;18.03;100.00
61472;BME280;47337;54.068;12.114;2022-08-01T00:29:41;100928.72;;;18.01;100.00
61472;BME280;47337;54.068;12.114;2022-08-01T00:32:07;100920.84;;;17.98;100.00
61472;BME280;47337;54.068;12.114;2022-08-01T00:34:33;100921.75;;;17.97;100.00
61472;BME280;47337;54.068;12.114;2022-08-01T00:36:58;100918.19;;;17.98;100.00
61472;BME280;47337;54.068;12.114;2022-08-01T00:39:23;100911.06;;;18.00;100.00
61472;BME280;47337;54.068;12.114;2022-08-01T00:41:49;100906.63;;;18.01;100.00
61472;BME280;47337;54.068;12.114;2022-08-01T00:44:16;100898.66;;;18.01;100.00
61472;BME280;47337;54.068;12.114;2022-08-01T00:46:42;100894.25;;;18.00;100.00
61472;BME280;47337;54.068;12.114;2022-08-01T00:49:07;100892.47;;;18.00;100.00
61472;BME280;47337;54.068;12.114;2022-08-01T00:51:33;100889.69;;;18.06;100.00
61472;BME280;47337;54.068;12.114;2022-08-01T00:53:59;100877.41;;;18.01;100.00
61472;BME280;47337;54.068;12.114;2022-08-01T00:56:26;100875.59;;;18.01;100.00
61472;BME280;47337;54.068;12.114;2022-08-01T00:58:53;100874.69;;;18.02;100.00
61472;BME280;47337;54.068;12.114;2022-08-01T01:01:18;100861.41;;;18.02;100.00
61472;BME280;47337;54.068;12.114;2022-08-01T01:03:46;100856.94;;;18.06;100.00
61472;BME280;47337;54.068;12.114;2022-08-01T01:08:47;100849.97;;;18.00;100.00
61472;BME280;47337;54.068;12.114;2022-08-01T01:11:28;100852.63;;;18.00;100.00
61472;BME280;47337;54.068;12.114;2022-08-01T01:14:10;100847.19;;;18.06;100.00
61472;BME280;47337;54.068;12.114;2022-08-01T01:16:42;100858.75;;;18.02;100.00
61472;BME280;47337;54.068;12.114;2022-08-01T01:19:13;100846.44;;;18.00;100.00
61472;BME280;47337;54.068;12.114;2022-08-01T01:24:31;100848.25;;;17.96;100.00
61472;BME280;47337;54.068;12.114;2022-08-01T01:27:10;100848.25;;;17.96;100.00
61472;BME280;47337;54.068;12.114;2022-08-01T01:29:44;100847.34;;;17.97;100.00
61472;BME280;47337;54.068;12.114;2022-08-01T01:32:18;100852.75;;;17.91;100.00
61472;BME280;47337;54.068;12.114;2022-08-01T01:34:46;100841.25;;;17.92;100.00
61472;BME280;47337;54.068;12.114;2022-08-01T01:37:18;100851.09;;;17.87;100.00
61472;BME280;47337;54.068;12.114;2022-08-01T01:39:46;100850.19;;;17.88;100.00
61472;BME280;47337;54.068;12.114;2022-08-01T01:42:14;100839.56;;;17.88;100.00
61472;BME280;47337;54.068;12.114;2022-08-01T01:44:43;100851.88;;;17.92;100.00
61472;BME280;47337;54.068;12.114;2022-08-01T01:47:12;100842.09;;;17.94;100.00
61472;BME280;47337;54.068;12.114;2022-08-01T01:49:41;100842.22;;;17.88;100.00
61472;BME280;47337;54.068;12.114;2022-08-01T01:52:11;100844.03;;;17.86;100.00
61472;BME280;47337;54.068;12.114;2022-08-01T01:54:40;100844.91;;;17.85;100.00
61472;BME280;47337;54.068;12.114;2022-08-01T01:57:08;100844.03;;;17.86;100.00
61472;BME280;47337;54.068;12.114;2022-08-01T01:59:36;100844.03;;;17.86;100.00
61472;BME280;47337;54.068;12.114;2022-08-01T02:02:07;100848.47;;;17.84;100.00
61472;BME280;47337;54.068;12.114;2022-08-01T02:04:40;100850.25;;;17.83;100.00
61472;BME280;47337;54.068;12.114;2022-08-01T02:07:09;100847.69;;;17.79;100.00
61472;BME280;47337;54.068;12.114;2022-08-01T02:09:37;100845.94;;;17.78;100.00
61472;BME280;47337;54.068;12.114;2022-08-01T02:12:03;100842.44;;;17.76;100.00
61472;BME280;47337;54.068;12.114;2022-08-01T02:14:32;100835.38;;;17.75;100.00
61472;BME280;47337;54.068;12.114;2022-08-01T02:17:00;100845.09;;;17.76;100.00
61472;BME280;47337;54.068;12.114;2022-08-01T02:19:31;100844.19;;;17.77;100.00
61472;BME280;47337;54.068;12.114;2022-08-01T02:22:01;100846.00;;;17.75;100.00
61472;BME280;47337;54.068;12.114;2022-08-01T02:27:06;100845.97;;;17.76;100.00
61472;BME280;47337;54.068;12.114;2022-08-01T02:29:38;100844.13;;;17.80;100.00
61472;BME280;47337;54.068;12.114;2022-08-01T02:32:06;100838.72;;;17.86;100.00
61472;BME280;47337;54.068;12.114;2022-08-01T02:34:35;100836.91;;;17.88;100.00
61472;BME280;47337;54.068;12.114;2022-08-01T02:37:03;100828.94;;;17.88;100.00
61472;BME280;47337;54.068;12.114;2022-08-01T02:39:29;100832.41;;;17.91;100.00
61472;BME280;47337;54.068;12.114;2022-08-01T02:41:57;100830.63;;;17.90;100.00
61472;BME280;47337;54.068;12.114;2022-08-01T02:44:30;100831.63;;;17.86;100.00
61472;BME280;47337;54.068;12.114;2022-08-01T02:47:01;100828.03;;;17.89;100.00
61472;BME280;47337;54.068;12.114;2022-08-01T02:49:39;100834.25;;;17.88;100.00
61472;BME280;47337;54.068;12.114;2022-08-01T02:52:08;100837.78;;;17.88;100.00
61472;BME280;47337;54.068;12.114;2022-08-01T02:54:36;100835.94;;;17.90;100.00
61472;BME280;47337;54.068;12.114;2022-08-01T02:57:03;100838.59;;;17.92;100.00
61472;BME280;47337;54.068;12.114;2022-08-01T02:59:32;100842.97;;;17.95;100.00
61472;BME280;47337;54.068;12.114;2022-08-01T03:02:01;100839.38;;;17.97;100.00
61472;BME280;47337;54.068;12.114;2022-08-01T03:04:30;100843.66;;;18.04;100.00
61472;BME280;47337;54.068;12.114;2022-08-01T03:07:02;100846.25;;;18.09;100.00
61472;BME280;47337;54.068;12.114;2022-08-01T03:09:29;100842.56;;;18.16;100.00
61472;BME280;47337;54.068;12.114;2022-08-01T03:11:59;100850.44;;;18.20;100.00
61472;BME280;47337;54.068;12.114;2022-08-01T03:14:26;100837.25;;;18.14;100.00
61472;BME280;47337;54.068;12.114;2022-08-01T03:16:53;100850.56;;;18.14;100.00
61472;BME280;47337;54.068;12.114;2022-08-01T03:19:22;100850.63;;;18.11;100.00
61472;BME280;47337;54.068;12.114;2022-08-01T03:21:49;100844.38;;;18.12;100.00
61472;BME280;47337;54.068;12.114;2022-08-01T03:24:16;100841.56;;;18.21;100.00
61472;BME280;47337;54.068;12.114;2022-08-01T03:26:44;100839.75;;;18.23;100.00
61472;BME280;47337;54.068;12.114;2022-08-01T03:29:16;100843.19;;;18.28;100.00
61472;BME280;47337;54.068;12.114;2022-08-01T03:31:47;100839.75;;;18.23;100.00
61472;BME280;47337;54.068;12.114;2022-08-01T03:34:13;100836.31;;;18.18;100.00
61472;BME280;47337;54.068;12.114;2022-08-01T03:36:46;100837.03;;;18.26;100.00
61472;BME280;47337;54.068;12.114;2022-08-01T03:39:11;100843.28;;;18.22;100.00
61472;BME280;47337;54.068;12.114;2022-08-01T03:41:40;100842.53;;;18.17;100.00
61472;BME280;47337;54.068;12.114;2022-08-01T03:44:15;100854.06;;;18.16;100.00
61472;BME280;47337;54.068;12.114;2022-08-01T03:46:48;100856.78;;;18.12;100.00
61472;BME280;47337;54.068;12.114;2022-08-01T03:49:20;100854.88;;;18.21;100.00
61472;BME280;47337;54.068;12.114;2022-08-01T03:51:48;100856.66;;;18.19;100.00
61472;BME280;47337;54.068;12.114;2022-08-01T03:54:16;100859.25;;;18.22;100.00
61472;BME280;47337;54.068;12.114;2022-08-01T03:56:43;100854.75;;;18.26;100.00
61472;BME280;47337;54.068;12.114;2022-08-01T03:59:10;100851.19;;;18.27;100.00
61472;BME280;47337;54.068;12.114;2022-08-01T04:01:40;100848.47;;;18.32;100.00
61472;BME280;47337;54.068;12.114;2022-08-01T04:04:06;100844.03;;;18.32;100.00
61472;BME280;47337;54.068;12.114;2022-08-01T04:06:32;100846.69;;;18.31;100.00
61472;BME280;47337;54.068;12.114;2022-08-01T04:08:57;100849.25;;;18.35;100.00
61472;BME280;47337;54.068;12.114;2022-08-01T04:11:27;100845.00;;;18.26;100.00
61472;BME280;47337;54.068;12.114;2022-08-01T04:13:58;100849.56;;;18.20;100.00
61472;BME280;47337;54.068;12.114;2022-08-01T04:16:23;100847.81;;;18.19;100.00
61472;BME280;47337;54.068;12.114;2022-08-01T04:18:49;100861.09;;;18.20;100.00
61472;BME280;47337;54.068;12.114;2022-08-01T04:21:18;100860.19;;;18.21;100.00
61472;BME280;47337;54.068;12.114;2022-08-01T04:23:44;100861.06;;;18.22;100.00
61472;BME280;47337;54.068;12.114;2022-08-01T04:26:12;100867.16;;;18.25;100.00
61472;BME280;47337;54.068;12.114;2022-08-01T04:28:40;100873.38;;;18.24;100.00
61472;BME280;47337;54.068;12.114;2022-08-01T04:31:08;100875.09;;;18.28;100.00
61472;BME280;47337;54.068;12.114;2022-08-01T04:33:42;100879.44;;;18.33;100.00
61472;BME280;47337;54.068;12.114;2022-08-01T04:36:09;100877.63;;;18.35;100.00
61472;BME280;47337;54.068;12.114;2022-08-01T04:38:39;100892.59;;;18.39;100.00
61472;BME280;47337;54.068;12.114;2022-08-01T04:41:09;100884.56;;;18.43;100.00
61472;BME280;47337;54.068;12.114;2022-08-01T04:43:35;100880.09;;;18.44;100.00
61472;BME280;47337;54.068;12.114;2022-08-01T04:46:07;100880.91;;;18.47;100.00
61472;BME280;47337;54.068;12.114;2022-08-01T04:48:39;100879.03;;;18.52;100.00
61472;BME280;47337;54.068;12.114;2022-08-01T04:51:12;100891.34;;;18.56;100.00
61472;BME280;47337;54.068;12.114;2022-08-01T04:53:38;100886.91;;;18.58;100.00
61472;BME280;47337;54.068;12.114;2022-08-01T04:56:03;100885.97;;;18.62;100.00
61472;BME280;47337;54.068;12.114;2022-08-01T04:58:29;100886.88;;;18.61;100.00
61472;BME280;47337;54.068;12.114;2022-08-01T05:00:54;100891.28;;;18.62;100.00
61472;BME280;47337;54.068;12.114;2022-08-01T05:03:19;100885.00;;;18.65;100.00
61472;BME280;47337;54.068;12.114;2022-08-01T05:05:45;100892.16;;;18.63;100.00
61472;BME280;47337;54.068;12.114;2022-08-01T05:08:10;100894.69;;;18.69;100.00
61472;BME280;47337;54.068;12.114;2022-08-01T05:10:36;100898.16;;;18.73;100.00
61472;BME280;47337;54.068;12.114;2022-08-01T05:13:02;100898.78;;;18.85;100.00
61472;BME280;47337;54.068;12.114;2022-08-01T05:15:29;100902.25;;;18.87;100.00
61472;BME280;47337;54.068;12.114;2022-08-01T05:17:56;100898.59;;;18.93;100.00
61472;BME280;47337;54.068;12.114;2022-08-01T05:20:21;100900.22;;;18.98;100.00
61472;BME280;47337;54.068;12.114;2022-08-01T05:22:47;100894.84;;;19.01;100.00
61472;BME280;47337;54.068;12.114;2022-08-01T05:25:12;100891.97;;;19.11;100.00
61472;BME280;47337;54.068;12.114;2022-08-01T05:27:38;100899.88;;;19.15;100.00
61472;BME280;47337;54.068;12.114;2022-08-01T05:30:08;100892.78;;;19.14;100.00
61472;BME280;47337;54.068;12.114;2022-08-01T05:32:33;100891.72;;;19.21;100.00
61472;BME280;47337;54.068;12.114;2022-08-01T05:34:59;100895.09;;;19.29;100.00
61472;BME280;47337;54.068;12.114;2022-08-01T05:37:25;100898.75;;;19.25;100.00
61472;BME280;47337;54.068;12.114;2022-08-01T05:39:50;100900.41;;;19.29;100.00
61472;BME280;47337;54.068;12.114;2022-08-01T05:42:18;100894.94;;;19.37;100.00
61472;BME280;47337;54.068;12.114;2022-08-01T05:44:43;100893.06;;;19.39;100.00
61472;BME280;47337;54.068;12.114;2022-08-01T05:47:09;100890.34;;;19.42;100.00
61472;BME280;47337;54.068;12.114;2022-08-01T05:49:34;100890.88;;;19.59;100.00
61472;BME280;47337;54.068;12.114;2022-08-01T05:52:00;100882.91;;;19.58;100.00
61472;BME280;47337;54.068;12.114;2022-08-01T05:54:27;100883.47;;;19.70;100.00
61472;BME280;47337;54.068;12.114;2022-08-01T05:56:54;100888.03;;;19.65;100.00
61472;BME280;47337;54.068;12.114;2022-08-01T05:59:25;100883.41;;;19.72;100.00
61472;BME280;47337;54.068;12.114;2022-08-01T06:01:51;100871.94;;;19.70;100.00
61472;BME280;47337;54.068;12.114;2022-08-01T06:04:16;100865.13;;;19.58;100.00
61472;BME280;47337;54.068;12.114;2022-08-01T06:06:44;100875.94;;;19.52;100.00
61472;BME280;47337;54.068;12.114;2022-08-01T06:09:09;100866.31;;;19.45;100.00
61472;BME280;47337;54.068;12.114;2022-08-01T06:11:37;100876.50;;;19.65;100.00
61472;BME280;47337;54.068;12.114;2022-08-01T06:14:02;100873.94;;;19.60;100.00
61472;BME280;47337;54.068;12.114;2022-08-01T06:16:28;100871.81;;;19.74;100.00
61472;BME280;47337;54.068;12.114;2022-08-01T06:18:53;100867.28;;;19.78;100.00
61472;BME280;47337;54.068;12.114;2022-08-01T06:21:18;100859.16;;;19.83;100.00
61472;BME280;47337;54.068;12.114;2022-08-01T06:23:44;100876.00;;;19.85;100.00
61472;BME280;47337;54.068;12.114;2022-08-01T06:26:09;100869.25;;;20.04;100.00
61472;BME280;47337;54.068;12.114;2022-08-01T06:28:35;100862.75;;;20.14;100.00
61472;BME280;47337;54.068;12.114;2022-08-01T06:31:03;100857.84;;;20.31;100.00
61472;BME280;47337;54.068;12.114;2022-08-01T06:33:29;100858.88;;;20.57;100.00
61472;BME280;47337;54.068;12.114;2022-08-01T06:35:56;100851.13;;;20.49;100.00
61472;BME280;47337;54.068;12.114;2022-08-01T06:38:22;100854.03;;;20.41;100.00
61472;BME280;47337;54.068;12.114;2022-08-01T06:40:48;100854.34;;;20.29;100.00
61472;BME280;47337;54.068;12.114;2022-08-01T06:43:13;100863.59;;;20.16;100.00
61472;BME280;47337;54.068;12.114;2022-08-01T06:45:39;100858.88;;;20.26;100.00
61472;BME280;47337;54.068;12.114;2022-08-01T06:48:05;100855.16;;;20.00;100.00
61472;BME280;47337;54.068;12.114;2022-08-01T06:50:31;100862.53;;;19.91;100.00
61472;BME280;47337;54.068;12.114;2022-08-01T06:52:56;100851.13;;;19.84;100.00
61472;BME280;47337;54.068;12.114;2022-08-01T06:55:22;100875.16;;;19.83;100.00
61472;BME280;47337;54.068;12.114;2022-08-01T06:57:52;100877.28;;;19.70;100.00
61472;BME280;47337;54.068;12.114;2022-08-01T07:00:19;100877.88;;;19.44;100.00
61472;BME280;47337;54.068;12.114;2022-08-01T07:02:48;100887.16;;;19.28;100.00
61472;BME280;47337;54.068;12.114;2022-08-01T07:05:14;100898.84;;;19.21;100.00
61472;BME280;47337;54.068;12.114;2022-08-01T07:07:39;100899.50;;;19.30;100.00
61472;BME280;47337;54.068;12.114;2022-08-01T07:10:07;100909.13;;;19.37;100.00
61472;BME280;47337;54.068;12.114;2022-08-01T07:12:34;100897.34;;;19.49;100.00
61472;BME280;47337;54.068;12.114;2022-08-01T07:15:02;100893.81;;;19.46;100.00
61472;BME280;47337;54.068;12.114;2022-08-01T07:17:28;100893.41;;;19.64;100.00
61472;BME280;47337;54.068;12.114;2022-08-01T07:19:53;100899.06;;;19.86;100.00
61472;BME280;47337;54.068;12.114;2022-08-01T07:22:19;100890.69;;;20.01;100.00
61472;BME280;47337;54.068;12.114;2022-08-01T07:24:45;100886.59;;;20.20;100.00
61472;BME280;47337;54.068;12.114;2022-08-01T07:27:11;100884.66;;;20.25;100.00
61472;BME280;47337;54.068;12.114;2022-08-01T07:29:36;100876.06;;;20.14;100.00
61472;BME280;47337;54.068;12.114;2022-08-01T07:32:02;100878.09;;;20.06;100.00
61472;BME280;47337;54.068;12.114;2022-08-01T07:34:27;100880.00;;;20.01;100.00
61472;BME280;47337;54.068;12.114;2022-08-01T07:36:53;100892.50;;;19.99;100.00
61472;BME280;47337;54.068;12.114;2022-08-01T07:39:18;100878.09;;;20.06;100.00
61472;BME280;47337;54.068;12.114;2022-08-01T07:41:44;100873.41;;;20.46;100.00
61472;BME280;47337;54.068;12.114;2022-08-01T07:44:10;100881.56;;;20.42;100.00
61472;BME280;47337;54.068;12.114;2022-08-01T07:46:35;100875.47;;;20.68;100.00
61472;BME280;47337;54.068;12.114;2022-08-01T07:49:01;100876.28;;;20.70;100.00
61472;BME280;47337;54.068;12.114;2022-08-01T07:51:26;100869.56;;;20.57;100.00
61472;BME280;47337;54.068;12.114;2022-08-01T07:53:51;100871.50;;;20.52;100.00
61472;BME280;47337;54.068;12.114;2022-08-01T07:56:19;100874.53;;;20.39;100.00
61472;BME280;47337;54.068;12.114;2022-08-01T07:58:45;100873.94;;;20.59;100.00
61472;BME280;47337;54.068;12.114;2022-08-01T08:01:11;100877.69;;;20.54;100.00
61472;BME280;47337;54.068;12.114;2022-08-01T08:03:37;100876.59;;;20.89;100.00
61472;BME280;47337;54.068;12.114;2022-08-01T08:06:02;100873.97;;;21.18;100.00
61472;BME280;47337;54.068;12.114;2022-08-01T08:08:28;100882.75;;;20.92;100.00
61472;BME280;47337;54.068;12.114;2022-08-01T08:10:53;100883.75;;;20.88;100.00
61472;BME280;47337;54.068;12.114;2022-08-01T08:13:19;100875.72;;;20.88;100.00
61472;BME280;47337;54.068;12.114;2022-08-01T08:15:44;100878.31;;;20.62;100.00
61472;BME280;47337;54.068;12.114;2022-08-01T08:18:09;100880.22;;;20.57;100.00
61472;BME280;47337;54.068;12.114;2022-08-01T08:20:35;100881.25;;;20.53;100.00
61472;BME280;47337;54.068;12.114;2022-08-01T08:23:00;100891.59;;;20.32;100.00
61472;BME280;47337;54.068;12.114;2022-08-01T08:25:26;100899.81;;;20.56;100.00
61472;BME280;47337;54.068;12.114;2022-08-01T08:27:52;100904.38;;;20.83;100.00
61472;BME280;47337;54.068;12.114;2022-08-01T08:30:18;100889.91;;;20.90;100.00
61472;BME280;47337;54.068;12.114;2022-08-01T08:32:44;100900.03;;;20.79;100.00
61472;BME280;47337;54.068;12.114;2022-08-01T08:35:09;100894.50;;;20.56;100.00
61472;BME280;47337;54.068;12.114;2022-08-01T08:37:36;100887.31;;;20.58;100.00
61472;BME280;47337;54.068;12.114;2022-08-01T08:40:03;100892.06;;;20.77;100.00
61472;BME280;47337;54.068;12.114;2022-08-01T08:42:29;100902.63;;;20.82;100.00
61472;BME280;47337;54.068;12.114;2022-08-01T08:44:57;100892.84;;;21.10;100.00
61472;BME280;47337;54.068;12.114;2022-08-01T08:47:23;100891.06;;;21.11;100.00
61472;BME280;47337;54.068;12.114;2022-08-01T08:49:53;100894.81;;;21.05;100.00
61472;BME280;47337;54.068;12.114;2022-08-01T08:52:20;100901.78;;;21.09;100.00
61472;BME280;47337;54.068;12.114;2022-08-01T08:54:46;100900.16;;;21.61;100.00
61472;BME280;47337;54.068;12.114;2022-08-01T08:57:15;100899.84;;;21.70;100.00
61472;BME280;47337;54.068;12.114;2022-08-01T08:59:44;100892.50;;;21.23;100.00
61472;BME280;47337;54.068;12.114;2022-08-01T09:02:10;100889.53;;;21.32;100.00
61472;BME280;47337;54.068;12.114;2022-08-01T09:04:36;100896.59;;;21.05;100.00
61472;BME280;47337;54.068;12.114;2022-08-01T09:07:04;100910.34;;;21.21;100.00
61472;BME280;47337;54.068;12.114;2022-08-01T09:09:30;100914.41;;;21.04;100.00
61472;BME280;47337;54.068;12.114;2022-08-01T09:11:56;100915.81;;;21.16;100.00
61472;BME280;47337;54.068;12.114;2022-08-01T09:14:21;100906.41;;;21.04;100.00
61472;BME280;47337;54.068;12.114;2022-08-01T09:19:36;100917.31;;;21.54;100.00
61472;BME280;47337;54.068;12.114;2022-08-01T09:22:05;100925.19;;;21.85;100.00
61472;BME280;47337;54.068;12.114;2022-08-01T09:24:32;100912.59;;;22.15;100.00
61472;BME280;47337;54.068;12.114;2022-08-01T09:27:00;100911.72;;;21.34;100.00
61472;BME280;47337;54.068;12.114;2022-08-01T09:29:30;100926.25;;;21.53;100.00
61472;BME280;47337;54.068;12.114;2022-08-01T09:31:56;100924.34;;;21.57;100.00
61472;BME280;47337;54.068;12.114;2022-08-01T09:34:29;100929.38;;;21.39;100.00
61472;BME280;47337;54.068;12.114;2022-08-01T09:36:59;100932.97;;;21.38;100.00
61472;BME280;47337;54.068;12.114;2022-08-01T09:39:30;100941.34;;;21.26;100.00
61472;BME280;47337;54.068;12.114;2022-08-01T09:41:58;100961.72;;;20.68;100.00
61472;BME280;47337;54.068;12.114;2022-08-01T09:44:38;100967.75;;;20.76;100.00
61472;BME280;47337;54.068;12.114;2022-08-01T09:47:04;100964.06;;;21.10;100.00
61472;BME280;47337;54.068;12.114;2022-08-01T09:49:32;100961.00;;;21.24;100.00
61472;BME280;47337;54.068;12.114;2022-08-01T09:52:10;100956.22;;;21.63;100.00
61472;BME280;47337;54.068;12.114;2022-08-01T09:54:36;100957.75;;;21.42;100.00
61472;BME280;47337;54.068;12.114;2022-08-01T09:57:28;100959.72;;;21.37;100.00
61472;BME280;47337;54.068;12.114;2022-08-01T09:59:57;100969.91;;;20.93;100.00
61472;BME280;47337;54.068;12.114;2022-08-01T10:04:56;100974.44;;;20.90;100.00
61472;BME280;47337;54.068;12.114;2022-08-01T10:07:21;100976.13;;;20.94;100.00
61472;BME280;47337;54.068;12.114;2022-08-01T10:09:47;100984.44;;;20.83;100.00
61472;BME280;47337;54.068;12.114;2022-08-01T10:12:18;100987.13;;;21.12;100.00
61472;BME280;47337;54.068;12.114;2022-08-01T10:14:49;100982.28;;;21.27;100.00
61472;BME280;47337;54.068;12.114;2022-08-01T10:17:16;100984.34;;;21.17;100.00
61472;BME280;47337;54.068;12.114;2022-08-01T10:19:43;100997.28;;;21.31;100.00
61472;BME280;47337;54.068;12.114;2022-08-01T10:22:11;101009.97;;;20.61;100.00
61472;BME280;47337;54.068;12.114;2022-08-01T10:24:41;101009.72;;;20.70;100.00
61472;BME280;47337;54.068;12.114;2022-08-01T10:27:11;101009.34;;;20.83;100.00
61472;BME280;47337;54.068;12.114;2022-08-01T10:29:50;101017.00;;;20.29;100.00
61472;BME280;47337;54.068;12.114;2022-08-01T10:32:19;101008.16;;;20.27;100.00
61472;BME280;47337;54.068;12.114;2022-08-01T10:34:45;101028.53;;;19.94;100.00
61472;BME280;47337;54.068;12.114;2022-08-01T10:37:12;101015.63;;;19.78;100.00
61472;BME280;47337;54.068;12.114;2022-08-01T10:39:39;101033.59;;;20.05;100.00
61472;BME280;47337;54.068;12.114;2022-08-01T10:42:05;101034.22;;;20.16;100.00
61472;BME280;47337;54.068;12.114;2022-08-01T10:44:31;101034.97;;;20.57;100.00
61472;BME280;47337;54.068;12.114;2022-08-01T10:47:10;101034.75;;;20.30;100.00
61472;BME280;47337;54.068;12.114;2022-08-01T10:49:51;101029.81;;;20.51;100.00
61472;BME280;47337;54.068;12.114;2022-08-01T10:52:20;101039.03;;;20.37;100.00
61472;BME280;47337;54.068;12.114;2022-08-01T10:54:48;101041.59;;;20.05;100.00
61472;BME280;47337;54.068;12.114;2022-08-01T10:57:16;101051.50;;;19.61;100.00
61472;BME280;47337;54.068;12.114;2022-08-01T10:59:51;101061.56;;;19.47;100.00
61472;BME280;47337;54.068;12.114;2022-08-01T11:02:28;101062.09;;;19.21;100.00
61472;BME280;47337;54.068;12.114;2022-08-01T11:04:58;101079.75;;;19.27;100.00
61472;BME280;47337;54.068;12.114;2022-08-01T11:07:42;101095.75;;;19.25;100.00
61472;BME280;47337;54.068;12.114;2022-08-01T11:10:37;101088.25;;;18.99;100.00
61472;BME280;47337;54.068;12.114;2022-08-01T11:13:03;101095.66;;;18.85;100.00
61472;BME280;47337;54.068;12.114;2022-08-01T11:15:33;101092.22;;;18.77;100.00
61472;BME280;47337;54.068;12.114;2022-08-01T11:18:01;101103.25;;;19.05;100.00
61472;BME280;47337;54.068;12.114;2022-08-01T11:20:29;101089.78;;;19.13;100.00
61472;BME280;47337;54.068;12.114;2022-08-01T11:25:23;101107.50;;;19.14;100.00
61472;BME280;47337;54.068;12.114;2022-08-01T11:30:48;101113.00;;;19.06;100.00
61472;BME280;47337;54.068;12.114;2022-08-01T11:33:17;101109.34;;;19.10;100.00
61472;BME280;47337;54.068;12.114;2022-08-01T11:38:41;101114.63;;;19.13;100.00
61472;BME280;47337;54.068;12.114;2022-08-01T11:41:11;101110.66;;;19.34;100.00
61472;BME280;47337;54.068;12.114;2022-08-01T11:46:59;101098.22;;;19.78;100.00
61472;BME280;47337;54.068;12.114;2022-08-01T11:52:13;101074.94;;;20.58;100.00
61472;BME280;47337;54.068;12.114;2022-08-01T11:54:55;101085.78;;;20.86;100.00
61472;BME280;47337;54.068;12.114;2022-08-01T11:57:29;101077.91;;;21.12;100.00
61472;BME280;47337;54.068;12.114;2022-08-01T11:59:58;101079.28;;;21.29;98.42
61472;BME280;47337;54.068;12.114;2022-08-01T12:02:35;101084.97;;;20.49;98.08
61472;BME280;47337;54.068;12.114;2022-08-01T12:05:08;101090.06;;;20.58;99.40
61472;BME280;47337;54.068;12.114;2022-08-01T12:07:35;101079.09;;;20.70;97.30
61472;BME280;47337;54.068;12.114;2022-08-01T12:10:11;101074.50;;;20.76;97.04
61472;BME280;47337;54.068;12.114;2022-08-01T12:12:45;101073.19;;;20.57;95.75
61472;BME280;47337;54.068;12.114;2022-08-01T12:15:11;101079.34;;;20.61;94.60
61472;BME280;47337;54.068;12.114;2022-08-01T12:17:38;101061.03;;;21.12;92.66
61472;BME280;47337;54.068;12.114;2022-08-01T12:20:07;101062.88;;;20.77;90.92
61472;BME280;47337;54.068;12.114;2022-08-01T12:22:33;101078.81;;;20.80;91.02
61472;BME280;47337;54.068;12.114;2022-08-01T12:25:10;101062.34;;;20.97;89.67
61472;BME280;47337;54.068;12.114;2022-08-01T12:27:37;101068.41;;;20.36;89.52
61472;BME280;47337;54.068;12.114;2022-08-01T12:30:08;101069.91;;;20.80;89.62
61472;BME280;47337;54.068;12.114;2022-08-01T12:32:37;101067.78;;;20.60;89.32
61472;BME280;47337;54.068;12.114;2022-08-01T12:35:12;101075.34;;;20.77;89.10
61472;BME280;47337;54.068;12.114;2022-08-01T12:37:49;101069.59;;;20.92;88.28
61472;BME280;47337;54.068;12.114;2022-08-01T12:42:48;101049.44;;;21.13;85.17
61472;BME280;47337;54.068;12.114;2022-08-01T12:45:17;101036.13;;;21.11;82.83
61472;BME280;47337;54.068;12.114;2022-08-01T12:47:43;101013.13;;;20.42;82.12
61472;BME280;47337;54.068;12.114;2022-08-01T12:50:16;101051.31;;;20.44;83.15
61472;BME280;47337;54.068;12.114;2022-08-01T12:52:42;101046.84;;;20.45;83.44
61472;BME280;47337;54.068;12.114;2022-08-01T12:55:19;101042.28;;;20.82;82.55
61472;BME280;47337;54.068;12.114;2022-08-01T12:57:47;101041.59;;;21.07;81.84
61472;BME280;47337;54.068;12.114;2022-08-01T13:00:20;101032.69;;;21.39;81.03
61472;BME280;47337;54.068;12.114;2022-08-01T13:02:47;101020.44;;;20.99;79.79
61472;BME280;47337;54.068;12.114;2022-08-01T13:05:16;101036.94;;;21.13;80.14